KDAA

Davison AAF Airport

Fort Belvoir, Virginia, USA
METAR KDAA 191456Z AUTO 12003KT 10SM CLR 02/M07 A3015 RMK AO2 SLP214 T00211070 50007 $
Observed Flight Rules
Jan-19 @ 14:56 UTC (21 minutes ago) Visual Flight Rules
Wind Visibility Clouds
120° at 3 knots 10 miles
  • Clear skies
Temperatures Readings
Current 2°C / 36°F
Dewpoint -7°C / 19°F
Humidity 52%
Altimeter 30.15" Hg
Pressure 1021.4 hPa
Elevation 21
METAR KDAA 191456Z AUTO 12003KT 10SM CLR 02/M07 A3015 RMK AO2 SLP214 T00211070 50007 $
Observed Flight Rules
Jan-19 @ 14:56 UTC
(21 minutes ago)
VFR
Wind Visibility
120° at 3 knots 10 miles
Clouds
  • Clear skies
Temperature Dewpoint
2°C / 36°F -7°C / 19°F
Humidity Altimeter Pressure
52% 30.15" Hg 1021.4 hPa